Time;durP1;ratioP1;P1;durP2;ratioP2;P2;SDS_P1;SDS_P2;PMS_P1;PMS_P2;Temp;Humidity;BMP_temperature;BMP_pressure;BME280_temperature;BME280_humidity;BME280_pressure;Samples;Min_cycle;Max_cycle;Signal;HPM_P1;HPM_P2
2021/01/08 00:00:29;;;;;;;4.10;3.70;;;;;;;17.63;71.83;101687.63;4995935;28;20033;-77
2021/01/08 00:02:54;;;;;;;6.40;3.80;;;;;;;17.66;71.67;101690.28;5012082;28;20050;-77
2021/01/08 00:05:20;;;;;;;5.57;3.95;;;;;;;17.67;71.43;101693.84;5026728;28;20112;-77
2021/01/08 00:07:45;;;;;;;6.72;3.60;;;;;;;17.68;71.34;101696.50;5015408;28;20033;-75
2021/01/08 00:10:10;;;;;;;4.88;3.58;;;;;;;17.67;71.41;101699.19;5015343;28;20030;-74
2021/01/08 00:12:36;;;;;;;6.10;4.05;;;;;;;17.68;71.42;101690.28;5017877;28;20544;-74
2021/01/08 00:15:01;;;;;;;5.22;3.95;;;;;;;17.69;71.53;101692.06;5011161;28;20490;-74
2021/01/08 00:17:27;;;;;;;7.70;3.83;;;;;;;17.65;70.81;101680.50;4994796;28;20037;-74
2021/01/08 00:19:52;;;;;;;10.45;3.30;;;;;;;17.66;71.72;101682.25;5011945;28;20485;-74
2021/01/08 00:22:17;;;;;;;15.65;3.80;;;;;;;17.64;70.79;101676.06;4995156;28;20037;-75
2021/01/08 00:24:43;;;;;;;8.70;3.85;;;;;;;17.67;71.32;101672.47;4994650;28;20046;-74
2021/01/08 00:27:08;;;;;;;10.25;3.65;;;;;;;17.66;71.45;101666.25;5011766;28;20064;-74
2021/01/08 00:29:33;;;;;;;5.13;3.30;;;;;;;17.67;70.96;101661.78;4994842;28;20407;-74
2021/01/08 00:31:59;;;;;;;8.20;3.47;;;;;;;17.66;70.94;101670.69;5012452;28;20038;-74
2021/01/08 00:34:24;;;;;;;7.82;3.75;;;;;;;17.64;70.83;101667.16;4995146;28;20036;-75
2021/01/08 00:36:49;;;;;;;7.63;3.10;;;;;;;17.66;71.09;101671.56;5011477;28;20050;-74
2021/01/08 00:39:15;;;;;;;5.47;3.25;;;;;;;17.63;71.11;101663.56;5011880;28;20041;-74
2021/01/08 00:41:40;;;;;;;4.68;3.47;;;;;;;17.66;71.16;101662.66;4994456;28;20042;-74
2021/01/08 00:44:05;;;;;;;14.27;3.28;;;;;;;17.63;70.54;101665.34;4994018;28;20042;-75
2021/01/08 00:46:31;;;;;;;4.85;2.88;;;;;;;17.64;71.11;101667.16;5011960;28;20411;-74
2021/01/08 00:48:56;;;;;;;3.30;2.70;;;;;;;17.63;71.01;101668.91;5010713;28;20041;-74
2021/01/08 00:51:21;;;;;;;4.15;2.72;;;;;;;17.63;70.67;101668.03;5010587;28;20030;-74
2021/01/08 00:53:47;;;;;;;4.47;2.70;;;;;;;17.63;70.82;101652.91;4995224;28;20429;-75
2021/01/08 00:56:12;;;;;;;7.72;3.00;;;;;;;17.67;70.55;101652.00;5011801;28;20096;-74
2021/01/08 00:58:37;;;;;;;3.35;3.05;;;;;;;17.66;70.85;101647.53;5011953;28;20393;-74
2021/01/08 01:01:03;;;;;;;3.53;2.63;;;;;;;17.65;70.88;101645.78;5010103;28;20125;-74
2021/01/08 01:03:28;;;;;;;5.00;2.95;;;;;;;17.64;70.93;101651.13;5011546;28;20037;-74
2021/01/08 01:05:54;;;;;;;4.10;2.53;;;;;;;17.64;71.00;101643.13;4994041;28;20109;-74
2021/01/08 01:08:19;;;;;;;2.97;2.45;;;;;;;17.66;70.68;101654.66;4994085;28;20034;-74
2021/01/08 01:10:44;;;;;;;4.57;2.88;;;;;;;17.64;70.16;101653.78;5011507;28;20034;-75
2021/01/08 01:13:10;;;;;;;3.10;2.58;;;;;;;17.61;70.77;101654.66;4993583;28;20064;-74
2021/01/08 01:15:35;;;;;;;3.58;2.75;;;;;;;17.65;70.11;101659.16;5011350;28;20068;-74
2021/01/08 01:18:00;;;;;;;4.03;2.53;;;;;;;17.61;70.53;101644.00;5011073;28;20128;-75
2021/01/08 01:20:26;;;;;;;3.50;2.10;;;;;;;17.62;70.16;101647.56;5011199;28;20042;-75
2021/01/08 01:22:51;;;;;;;3.47;2.65;;;;;;;17.66;70.37;101646.66;4993719;28;20058;-76
2021/01/08 01:25:16;;;;;;;3.17;2.15;;;;;;;17.64;70.38;101630.66;4994389;28;20034;-76
2021/01/08 01:27:42;;;;;;;3.60;2.45;;;;;;;17.66;70.12;101626.19;5010093;28;20598;-74
2021/01/08 01:30:07;;;;;;;14.13;2.35;;;;;;;17.67;70.58;101627.97;4992875;28;20045;-74
2021/01/08 01:32:32;;;;;;;3.88;2.60;;;;;;;17.64;69.84;101627.09;5011158;28;20038;-73
2021/01/08 01:34:58;;;;;;;4.43;2.17;;;;;;;17.63;69.85;101634.22;4992977;28;20062;-74
2021/01/08 01:37:23;;;;;;;16.67;2.50;;;;;;;17.64;70.29;101624.41;5011284;28;20053;-77
2021/01/08 01:39:48;;;;;;;5.93;2.22;;;;;;;17.65;70.50;101627.09;5010201;28;20402;-73
2021/01/08 01:42:14;;;;;;;3.08;2.05;;;;;;;17.64;70.12;101619.06;5011083;28;20077;-73
2021/01/08 01:44:39;;;;;;;3.45;2.35;;;;;;;17.65;69.65;101621.75;5010646;28;20108;-73
2021/01/08 01:47:04;;;;;;;2.72;2.30;;;;;;;17.64;70.12;101619.97;4992501;28;20062;-73
2021/01/08 01:49:30;;;;;;;3.28;2.28;;;;;;;17.65;70.20;101616.41;4993536;28;20042;-73
2021/01/08 01:51:55;;;;;;;5.65;2.42;;;;;;;17.63;69.78;101614.63;5010139;28;20506;-73
2021/01/08 01:54:20;;;;;;;3.60;2.30;;;;;;;17.64;69.39;101613.72;4992906;28;20065;-73
2021/01/08 01:56:46;;;;;;;3.08;2.10;;;;;;;17.60;70.14;101617.25;4980489;28;20089;-73
2021/01/08 01:59:11;;;;;;;4.22;2.30;;;;;;;17.62;69.43;101629.75;4998571;28;20049;-74
2021/01/08 02:01:37;;;;;;;2.10;1.90;;;;;;;17.60;69.47;101631.47;4990839;28;20054;-74
2021/01/08 02:04:02;;;;;;;3.45;2.10;;;;;;;17.60;69.40;101627.91;4995997;28;20077;-74
2021/01/08 02:06:27;;;;;;;2.85;1.90;;;;;;;17.59;69.43;101618.16;5000525;28;20061;-73
2021/01/08 02:08:53;;;;;;;5.57;2.10;;;;;;;17.59;69.32;101616.34;5006870;28;20180;-74
2021/01/08 02:11:18;;;;;;;6.20;1.70;;;;;;;17.60;69.99;101603.88;5010886;28;20031;-73
2021/01/08 02:13:43;;;;;;;4.57;1.55;;;;;;;17.59;69.46;101603.00;5010004;28;20060;-73
2021/01/08 02:16:49;;;;;;;2.70;1.55;;;;;;;17.60;69.58;101595.88;4978543;28;20038;-73
2021/01/08 02:19:14;;;;;;;2.05;1.30;;;;;;;17.56;69.77;101599.44;4990927;28;20039;-74
2021/01/08 02:21:39;;;;;;;1.85;1.52;;;;;;;17.56;69.73;101594.09;5006343;28;20092;-74
2021/01/08 02:24:05;;;;;;;3.28;1.85;;;;;;;17.57;69.98;101594.13;4992796;28;20136;-73
2021/01/08 02:26:30;;;;;;;5.07;2.35;;;;;;;17.55;69.89;101587.88;4992787;28;20041;-73
2021/01/08 02:28:55;;;;;;;1.77;1.50;;;;;;;17.56;69.88;101588.78;5010154;28;20038;-73
2021/01/08 02:31:21;;;;;;;1.58;1.33;;;;;;;17.58;69.73;101585.22;5009115;28;20041;-73
2021/01/08 02:33:46;;;;;;;5.32;1.40;;;;;;;17.58;69.43;101574.53;5009814;28;20041;-74
2021/01/08 02:36:12;;;;;;;4.28;1.73;;;;;;;17.55;69.16;101574.53;5015857;28;20562;-74
2021/01/08 02:38:37;;;;;;;2.65;1.70;;;;;;;17.57;69.44;101574.53;5003108;28;20046;-74
2021/01/08 02:41:03;;;;;;;2.90;1.73;;;;;;;17.58;69.19;101579.00;5011824;28;20395;-74
2021/01/08 02:43:28;;;;;;;2.47;1.50;;;;;;;17.52;69.40;101575.41;4993356;28;20041;-73
2021/01/08 02:45:53;;;;;;;1.75;1.58;;;;;;;17.57;69.22;101582.53;4986655;28;20044;-73
2021/01/08 02:48:19;;;;;;;1.63;1.30;;;;;;;17.53;69.29;101585.19;4984677;28;20430;-73
2021/01/08 02:50:44;;;;;;;2.28;1.40;;;;;;;17.54;69.27;101586.09;4994169;28;20042;-73
2021/01/08 02:53:09;;;;;;;2.22;1.30;;;;;;;17.52;69.34;101578.06;5005017;28;20038;-74
2021/01/08 02:55:35;;;;;;;2.00;1.33;;;;;;;17.53;69.12;101568.28;5002979;28;20050;-73
2021/01/08 02:58:00;;;;;;;2.22;1.70;;;;;;;17.54;69.35;101575.41;4974750;28;21774;-73
2021/01/08 03:00:26;;;;;;;2.72;1.20;;;;;;;17.54;69.65;101576.31;4994029;28;20552;-74
2021/01/08 03:02:51;;;;;;;1.67;1.13;;;;;;;17.50;68.94;101574.53;4975795;28;20049;-73
2021/01/08 03:05:16;;;;;;;2.72;1.52;;;;;;;17.51;69.53;101573.66;4976527;28;20031;-73
2021/01/08 03:07:42;;;;;;;1.83;1.40;;;;;;;17.51;69.00;101578.09;4976399;28;20054;-74
2021/01/08 03:10:07;;;;;;;2.00;1.38;;;;;;;17.51;68.87;101567.41;4993271;28;20058;-74
2021/01/08 03:12:33;;;;;;;3.33;1.40;;;;;;;17.51;68.95;101575.44;4986047;28;20038;-73
2021/01/08 03:14:58;;;;;;;4.38;1.17;;;;;;;17.52;69.32;101577.22;5016536;28;20050;-73
2021/01/08 03:17:23;;;;;;;1.98;1.40;;;;;;;17.51;69.03;101583.44;5004023;28;20046;-73
2021/01/08 03:19:49;;;;;;;5.97;1.35;;;;;;;17.52;69.37;101578.06;4993807;28;20129;-74
2021/01/08 03:22:14;;;;;;;2.03;1.20;;;;;;;17.51;69.33;101576.31;4995748;28;20038;-74
2021/01/08 03:24:39;;;;;;;3.92;1.33;;;;;;;17.50;69.53;101571.88;5008952;28;20547;-73
2021/01/08 03:27:05;;;;;;;2.75;1.35;;;;;;;17.50;68.95;101574.53;4992329;28;20236;-74
2021/01/08 03:29:30;;;;;;;2.13;1.48;;;;;;;17.48;69.12;101565.63;4982018;28;20368;-73
2021/01/08 03:31:56;;;;;;;2.40;1.20;;;;;;;17.51;69.29;101575.44;4995190;28;20046;-73
2021/01/08 03:34:21;;;;;;;26.83;1.60;;;;;;;17.51;69.43;101570.97;4984086;28;20042;-73
2021/01/08 03:36:47;;;;;;;2.35;1.13;;;;;;;17.53;69.21;101561.16;4983827;28;20066;-74
2021/01/08 03:39:12;;;;;;;1.85;1.40;;;;;;;17.54;69.14;101570.97;4987579;28;20097;-74
2021/01/08 03:41:37;;;;;;;2.30;1.20;;;;;;;17.51;69.24;101570.09;5012677;28;20129;-74
2021/01/08 03:44:03;;;;;;;2.60;1.20;;;;;;;17.53;68.77;101574.53;4994097;28;20045;-74
2021/01/08 03:46:28;;;;;;;2.05;1.10;;;;;;;17.54;68.59;101578.06;5012773;28;20108;-73
2021/01/08 03:48:53;;;;;;;4.32;1.10;;;;;;;17.53;68.85;101573.63;5012345;28;20049;-73
2021/01/08 03:51:19;;;;;;;1.83;1.15;;;;;;;17.51;68.99;101570.97;5011962;28;20064;-74
2021/01/08 03:53:44;;;;;;;1.60;1.10;;;;;;;17.54;69.23;101575.41;4994314;28;20486;-73
2021/01/08 03:56:09;;;;;;;1.20;1.10;;;;;;;17.51;68.71;101575.44;5011679;28;20516;-73
2021/01/08 03:58:35;;;;;;;5.78;1.08;;;;;;;17.53;69.13;101578.97;4980346;28;20046;-73
2021/01/08 04:01:00;;;;;;;7.03;1.00;;;;;;;17.53;68.50;101582.53;5011586;28;20130;-75
2021/01/08 04:03:25;;;;;;;2.20;1.20;;;;;;;17.56;68.56;101576.31;4996015;28;20045;-75
2021/01/08 04:05:51;;;;;;;1.83;1.05;;;;;;;17.56;68.56;101570.06;4994848;28;20061;-74
2021/01/08 04:08:16;;;;;;;2.00;1.00;;;;;;;17.52;69.18;101570.06;5012313;28;20038;-74
2021/01/08 04:10:41;;;;;;;2.15;1.10;;;;;;;17.51;68.95;101562.06;5012123;28;20042;-75
2021/01/08 04:13:07;;;;;;;5.20;1.10;;;;;;;17.51;68.91;101573.66;4994924;28;20041;-75
2021/01/08 04:15:32;;;;;;;5.18;1.02;;;;;;;17.56;68.69;101562.97;5009026;28;20498;-76
2021/01/08 04:17:58;;;;;;;2.38;1.00;;;;;;;17.57;68.34;101558.50;4994899;28;20037;-76
2021/01/08 04:20:23;;;;;;;4.63;1.00;;;;;;;17.58;68.63;101562.97;5012385;28;20038;-76
2021/01/08 04:22:48;;;;;;;13.73;1.00;;;;;;;17.63;68.51;101570.13;5010941;28;20042;-75
2021/01/08 04:25:14;;;;;;;6.65;1.35;;;;;;;17.59;68.70;101570.09;5009861;28;20469;-76
2021/01/08 04:27:39;;;;;;;4.20;0.80;;;;;;;17.54;68.77;101570.97;4994907;28;20494;-77
2021/01/08 04:30:04;;;;;;;5.45;1.10;;;;;;;17.53;68.29;101557.59;5011329;28;20046;-76
2021/01/08 04:32:30;;;;;;;9.20;0.93;;;;;;;17.54;67.94;101560.28;5011811;28;20426;-76
2021/01/08 04:34:55;;;;;;;6.68;1.15;;;;;;;17.53;67.95;101552.25;4997665;28;20038;-76
2021/01/08 04:37:21;;;;;;;9.73;1.20;;;;;;;17.56;68.28;101546.03;4995451;28;20057;-76
2021/01/08 04:39:47;;;;;;;1.95;0.95;;;;;;;17.53;68.40;101542.47;4993787;28;20518;-75
2021/01/08 04:42:12;;;;;;;7.13;1.00;;;;;;;17.56;68.16;101543.38;5012153;28;20041;-76
2021/01/08 04:44:37;;;;;;;11.20;0.90;;;;;;;17.54;68.09;101541.59;4994470;28;20115;-76
2021/01/08 04:47:03;;;;;;;3.00;1.00;;;;;;;17.53;68.00;101541.59;5010287;28;20061;-75
2021/01/08 04:49:28;;;;;;;4.95;0.90;;;;;;;17.55;67.97;101534.47;5011382;28;20034;-75
2021/01/08 04:51:53;;;;;;;1.23;0.80;;;;;;;17.55;68.08;101545.16;4994193;28;20056;-75
2021/01/08 04:54:19;;;;;;;1.02;0.80;;;;;;;17.57;67.87;101553.16;4990632;28;20070;-74
2021/01/08 04:56:44;;;;;;;1.95;0.90;;;;;;;17.51;68.67;101544.28;4992342;28;20034;-74
2021/01/08 04:59:09;;;;;;;2.97;0.80;;;;;;;17.52;67.98;101540.69;5010306;28;20117;-74
2021/01/08 05:01:35;;;;;;;5.30;0.75;;;;;;;17.51;68.45;101543.38;5011684;28;20045;-74
2021/01/08 05:04:00;;;;;;;1.60;1.10;;;;;;;17.54;67.72;101544.25;4986452;28;20459;-74
2021/01/08 05:06:26;;;;;;;1.77;0.90;;;;;;;17.52;67.83;101539.84;5007327;28;20034;-74
2021/01/08 05:08:51;;;;;;;3.50;0.80;;;;;;;17.50;68.36;101553.19;4993522;28;20498;-74
2021/01/08 05:11:16;;;;;;;3.10;0.93;;;;;;;17.47;67.89;101547.81;4994253;28;20045;-75
2021/01/08 05:13:42;;;;;;;2.42;0.90;;;;;;;17.47;67.92;101550.50;5011504;28;20034;-75
2021/01/08 05:16:07;;;;;;;4.40;0.60;;;;;;;17.48;68.12;101540.69;5012183;28;20048;-76
2021/01/08 05:18:32;;;;;;;2.83;0.90;;;;;;;17.47;67.97;101546.94;4996109;28;20038;-75
2021/01/08 05:20:58;;;;;;;0.95;0.73;;;;;;;17.52;68.45;101537.16;5010833;28;20045;-75
2021/01/08 05:23:23;;;;;;;1.80;0.98;;;;;;;17.45;68.29;101544.28;5018952;28;20053;-74
2021/01/08 05:25:48;;;;;;;1.13;0.73;;;;;;;17.44;68.36;101553.19;5010866;28;20037;-74
2021/01/08 05:28:14;;;;;;;0.63;0.60;;;;;;;17.45;68.06;101544.28;5018499;28;20065;-75
2021/01/08 05:30:39;;;;;;;3.38;0.85;;;;;;;17.46;68.20;101559.38;5002944;28;20465;-75
2021/01/08 05:33:05;;;;;;;6.28;0.90;;;;;;;17.47;67.93;101558.50;4993281;28;20038;-73
2021/01/08 05:35:32;;;;;;;5.35;0.90;;;;;;;17.48;68.61;101560.28;5011089;28;20046;-73
2021/01/08 05:37:57;;;;;;;1.67;0.80;;;;;;;17.47;68.05;101566.50;4993010;28;20034;-73
2021/01/08 05:40:23;;;;;;;4.35;0.80;;;;;;;17.44;68.31;101560.28;4993436;28;20061;-73
2021/01/08 05:42:48;;;;;;;4.72;0.80;;;;;;;17.45;68.11;101568.31;5015411;28;20042;-73
2021/01/08 05:45:13;;;;;;;1.70;1.17;;;;;;;17.46;68.14;101575.41;5010422;28;20428;-73
2021/01/08 05:47:39;;;;;;;5.95;0.80;;;;;;;17.45;67.89;101581.66;4997655;28;20038;-74
2021/01/08 05:50:04;;;;;;;2.25;0.70;;;;;;;17.44;67.99;101573.66;5001371;28;20046;-73
2021/01/08 05:52:29;;;;;;;1.63;0.70;;;;;;;17.44;67.72;101579.88;4984931;28;20407;-73
2021/01/08 05:54:55;;;;;;;1.55;0.75;;;;;;;17.45;67.68;101592.34;4983967;28;20034;-73
2021/01/08 05:57:20;;;;;;;3.15;0.80;;;;;;;17.43;68.36;101575.41;4981439;28;20042;-73
2021/01/08 05:59:45;;;;;;;1.33;0.70;;;;;;;17.41;67.92;101577.19;4990649;28;20066;-74
2021/01/08 06:02:11;;;;;;;2.38;0.60;;;;;;;17.42;67.84;101570.97;4980756;28;20047;-73
2021/01/08 06:04:36;;;;;;;1.95;0.70;;;;;;;17.44;68.08;101576.31;4981573;28;20043;-72
2021/01/08 06:07:02;;;;;;;2.13;0.73;;;;;;;17.43;67.65;101583.44;5005792;28;20046;-73
2021/01/08 06:09:27;;;;;;;3.53;0.70;;;;;;;17.40;67.62;101586.09;4973725;28;20046;-73
2021/01/08 06:11:53;;;;;;;1.25;0.77;;;;;;;17.42;68.19;101586.09;4973257;28;20463;-73
2021/01/08 06:14:18;;;;;;;2.45;0.75;;;;;;;17.43;67.55;101595.88;4973524;28;20123;-73
2021/01/08 06:16:43;;;;;;;4.50;1.00;;;;;;;17.43;67.90;101590.53;4993523;28;20052;-75
2021/01/08 06:19:09;;;;;;;8.40;0.85;;;;;;;17.51;67.50;101600.34;4994408;28;20101;-75
2021/01/08 06:21:34;;;;;;;2.58;0.90;;;;;;;17.43;67.97;101610.13;5003268;28;20438;-75
2021/01/08 06:23:59;;;;;;;4.18;0.90;;;;;;;17.48;67.72;101615.47;5014271;28;20069;-74
2021/01/08 06:26:25;;;;;;;11.48;1.00;;;;;;;17.54;67.87;101613.69;5025815;28;20037;-74
2021/01/08 06:28:50;;;;;;;6.38;0.90;;;;;;;17.51;68.56;101615.47;5009937;28;20073;-74
2021/01/08 06:31:16;;;;;;;7.13;0.85;;;;;;;17.48;68.80;101607.44;5022664;28;20046;-74
2021/01/08 06:33:41;;;;;;;8.25;0.90;;;;;;;17.54;68.16;101607.44;5005607;28;20128;-74
2021/01/08 06:36:06;;;;;;;3.25;0.70;;;;;;;17.49;68.61;101611.91;5014023;28;20103;-75
2021/01/08 06:38:32;;;;;;;3.28;0.82;;;;;;;17.51;68.57;101610.13;5014308;28;20085;-75
2021/01/08 06:40:57;;;;;;;15.23;1.10;;;;;;;17.56;68.58;101619.03;4978401;28;20046;-73
2021/01/08 06:43:22;;;;;;;10.20;1.23;;;;;;;17.63;67.83;101617.28;5018174;28;20040;-73
2021/01/08 06:45:48;;;;;;;9.88;0.95;;;;;;;17.57;67.94;101626.16;5016500;28;20046;-72
2021/01/08 06:48:13;;;;;;;60.25;1.83;;;;;;;17.62;67.75;101626.19;5011207;28;20544;-74
2021/01/08 06:50:38;;;;;;;20.88;1.77;;;;;;;17.57;67.87;101635.94;5013376;28;20046;-74
2021/01/08 06:53:04;;;;;;;12.80;0.90;;;;;;;17.57;68.07;101628.81;5013241;28;20042;-73
2021/01/08 06:55:29;;;;;;;25.02;1.10;;;;;;;17.55;68.49;101638.59;4996508;28;20485;-73
2021/01/08 06:57:54;;;;;;;7.20;0.90;;;;;;;17.58;67.86;101629.72;4996622;28;20466;-74
2021/01/08 07:00:20;;;;;;;5.40;0.82;;;;;;;17.56;68.01;101629.72;5009318;28;20033;-73
2021/01/08 07:02:45;;;;;;;3.42;0.90;;;;;;;17.57;67.73;101615.47;5024013;28;20394;-75
2021/01/08 07:05:10;;;;;;;14.90;1.30;;;;;;;17.56;67.85;101627.03;4995748;28;20046;-74
2021/01/08 07:07:36;;;;;;;12.45;1.15;;;;;;;17.59;67.95;101628.84;4996785;28;20042;-75
2021/01/08 07:10:01;;;;;;;9.95;1.10;;;;;;;17.60;68.67;101618.13;4995900;28;20076;-73
2021/01/08 07:12:27;;;;;;;3.95;1.05;;;;;;;17.58;68.38;101613.69;4995992;28;20030;-73
2021/01/08 07:14:52;;;;;;;6.55;1.02;;;;;;;17.55;68.06;101619.91;5017163;28;20506;-72
2021/01/08 07:17:17;;;;;;;10.60;1.45;;;;;;;17.55;68.22;101617.25;5033233;28;20037;-74
2021/01/08 07:19:43;;;;;;;4.53;1.13;;;;;;;17.54;68.52;101619.03;5025175;28;20046;-74
2021/01/08 07:22:08;;;;;;;4.88;0.82;;;;;;;17.56;68.04;101613.69;5017921;28;20061;-73
2021/01/08 07:24:33;;;;;;;5.35;1.20;;;;;;;17.56;68.66;101610.13;5022929;28;20038;-73
2021/01/08 07:26:59;;;;;;;2.88;1.00;;;;;;;17.57;68.22;101612.81;5031747;28;20543;-73
2021/01/08 07:29:24;;;;;;;10.27;1.40;;;;;;;17.61;68.02;101619.06;4985775;28;20438;-73
2021/01/08 07:31:49;;;;;;;13.90;1.35;;;;;;;17.60;67.98;101614.56;4983611;28;20046;-73
2021/01/08 07:34:15;;;;;;;3.40;1.10;;;;;;;17.58;68.46;101613.69;5004335;28;20037;-73
2021/01/08 07:36:40;;;;;;;6.15;1.10;;;;;;;17.59;68.44;101615.47;4995334;28;20091;-73
2021/01/08 07:39:05;;;;;;;19.30;1.40;;;;;;;17.67;68.93;101609.28;4982447;28;20411;-74
2021/01/08 07:41:31;;;;;;;11.45;1.45;;;;;;;17.65;69.02;101624.44;5013071;28;20030;-75
2021/01/08 07:43:56;;;;;;;14.30;1.10;;;;;;;17.59;69.33;101618.16;5007391;28;20074;-76
2021/01/08 07:46:22;;;;;;;34.00;2.95;;;;;;;17.70;68.54;101617.31;5006006;28;20060;-75
2021/01/08 07:48:47;;;;;;;12.80;2.38;;;;;;;17.65;68.41;101621.75;5000833;28;20123;-73
2021/01/08 07:51:15;;;;;;;13.43;2.40;;;;;;;17.59;68.53;101615.47;4995530;28;20510;-74
2021/01/08 07:53:41;;;;;;;37.03;3.78;;;;;;;17.60;68.84;101614.56;4993944;28;20069;-73
2021/01/08 07:56:06;;;;;;;71.90;5.53;;;;;;;17.80;69.67;101620.84;4992636;28;20124;-74
2021/01/08 07:58:31;;;;;;;94.32;5.30;;;;;;;17.86;69.66;101636.88;4994546;28;20042;-74
2021/01/08 08:00:57;;;;;;;48.85;6.20;;;;;;;17.78;70.00;101628.00;5011402;28;20097;-76
2021/01/08 08:03:23;;;;;;;39.80;6.22;;;;;;;17.64;69.43;101627.09;5003845;28;20049;-75
2021/01/08 08:05:48;;;;;;;43.05;6.13;;;;;;;17.61;69.21;101624.41;4994634;28;20046;-77
2021/01/08 08:08:14;;;;;;;28.73;5.68;;;;;;;17.58;69.02;101624.38;4995445;28;20042;-73
2021/01/08 08:10:40;;;;;;;34.30;6.55;;;;;;;17.57;69.32;101635.94;5011050;28;20104;-76
2021/01/08 08:13:05;;;;;;;31.40;7.78;;;;;;;17.56;69.08;101636.84;4994730;28;20046;-76
2021/01/08 08:15:31;;;;;;;34.60;7.85;;;;;;;17.57;69.20;101630.59;5011612;28;20045;-75
2021/01/08 08:17:56;;;;;;;40.78;7.20;;;;;;;17.55;68.61;101635.94;4989288;28;20042;-78
2021/01/08 08:20:22;;;;;;;27.38;7.05;;;;;;;17.53;68.71;101633.25;5012151;28;20029;-77
2021/01/08 08:22:47;;;;;;;20.23;6.40;;;;;;;17.54;68.40;101623.47;4995604;28;20076;-77
2021/01/08 08:25:13;;;;;;;24.40;7.47;;;;;;;17.54;68.59;101619.03;5015556;28;20029;-78
2021/01/08 08:27:38;;;;;;;23.65;7.15;;;;;;;17.53;68.30;101614.56;5011337;28;20410;-79
2021/01/08 08:30:04;;;;;;;28.52;7.10;;;;;;;17.55;68.28;101611.91;5007955;28;20045;-78
2021/01/08 08:32:30;;;;;;;23.90;7.18;;;;;;;17.54;68.14;101603.00;4976076;28;20081;-78
2021/01/08 08:34:59;;;;;;;26.85;8.45;;;;;;;17.54;68.27;101615.47;5008083;28;20031;-73
2021/01/08 08:37:24;;;;;;;15.75;7.10;;;;;;;17.54;68.31;101616.34;4974266;28;20034;-74
2021/01/08 08:39:50;;;;;;;24.05;7.78;;;;;;;17.54;68.54;101616.34;4973700;28;20046;-74
2021/01/08 08:42:15;;;;;;;27.92;8.38;;;;;;;17.53;68.07;101616.34;5007276;28;20046;-76
2021/01/08 08:44:41;;;;;;;29.85;8.20;;;;;;;17.52;68.72;101615.44;4975265;28;20121;-75
2021/01/08 08:47:07;;;;;;;23.83;7.88;;;;;;;17.53;68.80;101614.56;4991826;28;20038;-74
2021/01/08 08:49:33;;;;;;;25.27;8.95;;;;;;;17.53;68.28;101611.91;4974148;28;20038;-75
2021/01/08 08:51:58;;;;;;;22.95;7.90;;;;;;;17.54;68.75;101615.47;4974408;28;20046;-74
2021/01/08 08:54:24;;;;;;;22.52;8.63;;;;;;;17.53;68.36;101608.34;4997098;28;20037;-74
2021/01/08 08:56:49;;;;;;;32.60;8.43;;;;;;;17.54;68.26;101599.44;5020874;28;20069;-74
2021/01/08 08:59:15;;;;;;;23.42;7.63;;;;;;;17.53;68.34;101590.53;5010885;28;20041;-73
2021/01/08 09:01:40;;;;;;;30.92;8.10;;;;;;;17.52;68.76;101587.88;5009762;28;20085;-74
2021/01/08 09:04:05;;;;;;;20.00;8.00;;;;;;;17.52;68.53;101588.75;5007670;28;20503;-76
2021/01/08 09:06:31;;;;;;;29.05;7.53;;;;;;;17.52;68.87;101578.06;5003132;28;20034;-75
2021/01/08 09:08:56;;;;;;;37.58;8.50;;;;;;;17.62;68.12;101588.81;5010075;28;20037;-75
2021/01/08 09:11:24;;;;;;;31.38;8.40;;;;;;;17.61;68.77;101569.22;5009948;28;20038;-74
2021/01/08 09:13:50;;;;;;;36.40;8.45;;;;;;;17.59;68.88;101572.75;5025434;28;20105;-74
2021/01/08 09:16:15;;;;;;;28.98;8.13;;;;;;;17.55;68.40;101571.84;5009388;28;20038;-73
2021/01/08 09:18:40;;;;;;;30.80;8.32;;;;;;;17.56;68.80;101573.63;5011054;28;20042;-74
2021/01/08 09:21:06;;;;;;;30.80;8.75;;;;;;;17.54;68.54;101562.94;5026037;28;20038;-74
2021/01/08 09:23:31;;;;;;;28.48;9.27;;;;;;;17.57;69.01;101569.19;5026026;28;20046;-76
2021/01/08 09:25:57;;;;;;;20.10;8.38;;;;;;;17.54;68.64;101583.41;5025400;28;20045;-73
2021/01/08 09:28:22;;;;;;;22.67;8.68;;;;;;;17.56;68.52;101583.44;5010667;28;20041;-72
2021/01/08 09:30:47;;;;;;;21.25;8.38;;;;;;;17.55;68.46;101561.19;5025874;28;20065;-71
2021/01/08 09:33:13;;;;;;;29.67;9.63;;;;;;;17.54;68.77;101554.06;5010032;28;20380;-74
2021/01/08 09:35:38;;;;;;;28.98;9.02;;;;;;;17.54;68.85;101554.06;5010683;28;20177;-74
2021/01/08 09:38:03;;;;;;;30.38;10.10;;;;;;;17.57;68.54;101555.84;5025009;28;20037;-73
2021/01/08 09:40:29;;;;;;;25.25;9.07;;;;;;;17.55;68.63;101547.81;5009278;28;20506;-72
2021/01/08 09:42:54;;;;;;;27.13;9.00;;;;;;;17.57;69.05;101553.16;5008838;28;20065;-73
2021/01/08 09:45:19;;;;;;;48.10;9.27;;;;;;;17.62;68.88;101535.41;5011044;28;20045;-75
2021/01/08 09:47:45;;;;;;;25.95;8.77;;;;;;;17.64;68.59;101526.50;5025387;28;20057;-73
2021/01/08 09:50:10;;;;;;;33.17;8.18;;;;;;;17.63;68.87;101523.81;5010181;28;20042;-74
2021/01/08 09:52:36;;;;;;;45.80;9.60;;;;;;;17.63;69.23;101510.47;5025714;28;20069;-75
2021/01/08 09:55:03;;;;;;;38.20;9.05;;;;;;;17.62;68.60;101508.69;5010461;28;20072;-71
2021/01/08 09:57:28;;;;;;;41.83;9.02;;;;;;;17.61;68.91;101512.25;5025444;28;20128;-73
2021/01/08 09:59:54;;;;;;;39.90;9.88;;;;;;;17.60;69.45;101518.44;5010237;28;20463;-73
2021/01/08 10:02:19;;;;;;;36.55;9.27;;;;;;;17.58;69.23;101515.78;5009406;28;20065;-73
2021/01/08 10:04:44;;;;;;;51.63;10.02;;;;;;;17.72;69.35;101516.66;5025209;28;20034;-72
2021/01/08 10:07:10;;;;;;;52.80;10.52;;;;;;;17.70;68.71;101518.47;5008229;28;20049;-73
2021/01/08 10:09:35;;;;;;;41.47;10.68;;;;;;;17.69;68.86;101511.34;5008396;28;20117;-74
2021/01/08 10:12:01;;;;;;;68.60;12.27;;;;;;;17.69;69.37;101530.03;5009406;28;20042;-74
2021/01/08 10:14:26;;;;;;;92.57;12.13;;;;;;;17.70;69.17;101510.47;5010313;28;20026;-84
2021/01/08 10:16:51;;;;;;;81.60;13.00;;;;;;;17.70;68.86;101507.78;5011351;28;20117;-86
2021/01/08 10:19:17;;;;;;;80.40;13.13;;;;;;;17.69;68.84;101500.66;5011522;28;20092;-73
2021/01/08 10:21:42;;;;;;;70.82;13.93;;;;;;;17.70;69.31;101490.88;5008888;28;20073;-73
2021/01/08 10:24:07;;;;;;;61.25;12.65;;;;;;;17.69;69.23;101500.66;5008486;28;20049;-73
2021/01/08 10:26:33;;;;;;;46.75;12.75;;;;;;;17.69;69.33;101499.78;5009944;28;20042;-74
2021/01/08 10:28:58;;;;;;;47.17;12.30;;;;;;;17.69;69.26;101484.66;5009268;28;20045;-73
2021/01/08 10:31:23;;;;;;;59.92;12.65;;;;;;;17.69;69.44;101478.41;5009005;28;20068;-74
2021/01/08 10:33:49;;;;;;;41.42;11.50;;;;;;;17.69;68.92;101481.09;4992772;28;20044;-73
2021/01/08 10:36:14;;;;;;;50.70;12.80;;;;;;;17.68;69.28;101469.50;4972365;28;20065;-74
2021/01/08 10:38:40;;;;;;;39.17;12.48;;;;;;;17.68;69.00;101464.16;4973018;28;20030;-73
2021/01/08 10:41:05;;;;;;;39.92;12.65;;;;;;;17.68;69.19;101464.16;4988919;28;20117;-74
2021/01/08 10:43:32;;;;;;;33.30;11.77;;;;;;;17.69;69.37;101478.41;4996171;28;20038;-74
2021/01/08 10:45:58;;;;;;;37.88;11.82;;;;;;;17.68;69.06;101460.59;4991542;28;20042;-73
2021/01/08 10:48:23;;;;;;;31.83;12.15;;;;;;;17.67;69.15;101464.16;5009724;28;20038;-75
2021/01/08 10:50:48;;;;;;;42.25;11.75;;;;;;;17.67;69.01;101458.81;4992772;28;20038;-75
2021/01/08 10:53:14;;;;;;;46.60;11.82;;;;;;;17.68;69.05;101464.16;5009307;28;20042;-76
2021/01/08 10:55:39;;;;;;;34.03;11.15;;;;;;;17.68;69.51;101450.81;4993038;28;20193;-74
2021/01/08 10:58:05;;;;;;;38.92;11.95;;;;;;;17.67;69.42;101454.38;4987607;28;20046;-74
2021/01/08 11:00:30;;;;;;;32.90;11.75;;;;;;;17.67;69.25;101437.47;4991450;28;20563;-73
2021/01/08 11:02:55;;;;;;;38.00;11.23;;;;;;;17.66;69.81;101444.59;5010662;28;20065;-79
2021/01/08 11:05:21;;;;;;;34.83;12.23;;;;;;;17.67;69.35;101441.03;4996430;28;20077;-75
2021/01/08 11:07:46;;;;;;;27.70;11.70;;;;;;;17.67;69.22;101441.03;4992564;28;20049;-77
2021/01/08 11:10:11;;;;;;;37.92;12.38;;;;;;;17.68;69.24;101439.25;4995059;28;20042;-77
2021/01/08 11:12:37;;;;;;;29.80;12.05;;;;;;;17.69;69.18;101433.91;4996776;28;20042;-78